createdAt,value
2023-05-25T00:00:04.308Z,36.59
2023-05-25T00:01:04.291Z,36.66
2023-05-25T00:02:04.314Z,36.64
2023-05-25T00:03:04.336Z,36.63
2023-05-25T00:04:04.543Z,36.65
2023-05-25T00:05:04.207Z,36.67
2023-05-25T00:06:04.205Z,36.64
2023-05-25T00:07:04.178Z,36.62
2023-05-25T00:08:04.160Z,36.61
2023-05-25T00:09:04.163Z,36.66
2023-05-25T00:10:04.171Z,36.60
2023-05-25T00:11:04.160Z,36.60
2023-05-25T00:12:04.172Z,36.60
2023-05-25T00:13:04.167Z,36.60
2023-05-25T00:14:04.128Z,36.65
2023-05-25T00:15:04.116Z,36.61
2023-05-25T00:16:04.124Z,36.62
2023-05-25T00:17:04.338Z,36.59
2023-05-25T00:18:04.207Z,36.60
2023-05-25T00:19:04.130Z,36.65
2023-05-25T00:20:04.125Z,36.62
2023-05-25T00:21:04.100Z,36.63
2023-05-25T00:22:04.138Z,36.62
2023-05-25T00:23:04.113Z,36.60
2023-05-25T00:24:04.117Z,36.59
2023-05-25T00:25:04.092Z,36.56
2023-05-25T00:26:04.116Z,36.59
2023-05-25T00:27:04.123Z,36.63
2023-05-25T00:28:04.117Z,36.59
2023-05-25T00:29:04.090Z,36.58
2023-05-25T00:30:04.089Z,36.56
2023-05-25T00:31:04.120Z,36.58
2023-05-25T00:32:04.089Z,36.59
2023-05-25T00:33:04.165Z,36.58
2023-05-25T00:34:04.078Z,36.58
2023-05-25T00:35:04.070Z,36.60
2023-05-25T00:36:04.057Z,36.52
2023-05-25T00:37:04.064Z,36.55
2023-05-25T00:38:04.045Z,36.59
2023-05-25T00:39:04.046Z,36.53
2023-05-25T00:40:04.056Z,36.56
2023-05-25T00:41:04.043Z,36.55
2023-05-25T00:42:04.055Z,36.58
2023-05-25T00:43:04.040Z,36.56
2023-05-25T00:44:04.044Z,36.59
2023-05-25T00:45:04.024Z,36.55
2023-05-25T00:46:04.032Z,36.52
2023-05-25T00:47:04.013Z,36.55
2023-05-25T00:48:04.106Z,36.55
2023-05-25T00:49:04.015Z,36.55
2023-05-25T00:50:04.020Z,36.59
2023-05-25T00:51:04.030Z,36.57
2023-05-25T00:52:03.992Z,36.56
2023-05-25T00:53:04.024Z,36.54
2023-05-25T00:54:04.001Z,36.58
2023-05-25T00:55:03.996Z,36.57
2023-05-25T00:56:03.994Z,36.51
2023-05-25T00:57:03.989Z,36.52
2023-05-25T00:58:04.000Z,36.57
2023-05-25T00:59:03.987Z,36.56
2023-05-25T01:00:03.970Z,36.57
2023-05-25T01:01:03.998Z,36.59
2023-05-25T01:02:04.049Z,36.55
2023-05-25T01:03:04.040Z,36.53
2023-05-25T01:04:04.075Z,36.56
2023-05-25T01:05:03.958Z,36.53
2023-05-25T01:06:03.949Z,36.53
2023-05-25T01:07:03.952Z,36.52
2023-05-25T01:08:03.965Z,36.56
2023-05-25T01:09:03.947Z,36.55
2023-05-25T01:10:03.942Z,36.55
2023-05-25T01:11:03.958Z,36.57
2023-05-25T01:12:03.933Z,36.55
2023-05-25T01:13:03.972Z,36.56
2023-05-25T01:14:03.948Z,36.56
2023-05-25T01:15:03.939Z,36.54
2023-05-25T01:16:03.950Z,36.56
2023-05-25T01:17:03.930Z,36.55
2023-05-25T01:18:04.034Z,36.49
2023-05-25T01:19:03.927Z,36.56
2023-05-25T01:20:10.583Z,36.53
2023-05-25T01:21:04.866Z,36.59
2023-05-25T01:22:03.849Z,36.54
2023-05-25T01:23:03.829Z,36.57
2023-05-25T01:24:03.792Z,36.52
2023-05-25T01:25:03.782Z,36.55
2023-05-25T01:26:03.747Z,36.52
2023-05-25T01:27:03.717Z,36.51
2023-05-25T01:28:03.715Z,36.52
2023-05-25T01:29:03.669Z,36.54
2023-05-25T01:30:03.652Z,36.47
2023-05-25T01:31:03.646Z,36.50
2023-05-25T01:32:03.677Z,36.53
2023-05-25T01:33:03.657Z,36.52
2023-05-25T01:34:03.571Z,36.53
2023-05-25T01:35:03.551Z,36.47
2023-05-25T01:36:03.538Z,36.54
2023-05-25T01:37:03.497Z,36.50
2023-05-25T01:38:03.499Z,36.52
2023-05-25T01:39:03.465Z,36.54
2023-05-25T01:40:03.552Z,36.52
2023-05-25T01:41:03.414Z,36.49
2023-05-25T01:42:03.390Z,36.53
2023-05-25T01:43:03.389Z,36.48
2023-05-25T01:44:03.349Z,36.46
2023-05-25T01:45:03.330Z,36.49
2023-05-25T01:46:03.355Z,36.50
2023-05-25T01:47:03.326Z,36.52
2023-05-25T01:48:03.353Z,36.52
2023-05-25T01:49:03.315Z,36.49
2023-05-25T01:50:03.304Z,36.49
2023-05-25T01:51:03.323Z,36.50
2023-05-25T01:52:03.342Z,36.46
2023-05-25T01:53:03.347Z,36.52
2023-05-25T01:54:03.312Z,36.49
2023-05-25T01:55:03.302Z,36.48
2023-05-25T01:56:03.256Z,36.46
2023-05-25T01:57:03.244Z,36.48
2023-05-25T01:58:03.218Z,36.48
2023-05-25T01:59:03.198Z,36.48
2023-05-25T02:00:03.182Z,36.47
2023-05-25T02:01:03.174Z,36.50
2023-05-25T02:02:03.164Z,36.48
2023-05-25T02:03:03.201Z,36.46
2023-05-25T02:04:03.166Z,36.49
2023-05-25T02:05:03.091Z,36.43
2023-05-25T02:06:03.050Z,36.49
2023-05-25T02:07:03.027Z,36.49
2023-05-25T02:08:03.005Z,36.44
2023-05-25T02:09:02.988Z,36.46
2023-05-25T02:10:02.963Z,36.46
2023-05-25T02:11:02.948Z,36.48
2023-05-25T02:12:02.909Z,36.49
2023-05-25T02:13:02.903Z,36.48
2023-05-25T02:14:02.891Z,36.50
2023-05-25T02:15:02.855Z,36.46
2023-05-25T02:16:02.854Z,36.42
2023-05-25T02:17:02.802Z,36.45
2023-05-25T02:18:02.836Z,36.49
2023-05-25T02:19:02.752Z,36.45
2023-05-25T02:20:02.756Z,36.45
2023-05-25T02:21:02.709Z,36.43
2023-05-25T02:22:02.682Z,36.45
2023-05-25T02:23:02.667Z,36.46
2023-05-25T02:24:02.616Z,36.41
2023-05-25T02:25:02.627Z,36.42
2023-05-25T02:26:02.555Z,36.47
2023-05-25T02:27:02.532Z,36.47
2023-05-25T02:28:02.505Z,36.45
2023-05-25T02:29:02.475Z,36.43
2023-05-25T02:30:02.444Z,36.43
2023-05-25T02:31:02.453Z,36.42
2023-05-25T02:32:02.368Z,36.43
2023-05-25T02:33:02.428Z,36.45
2023-05-25T02:34:02.326Z,36.46
2023-05-25T02:35:02.283Z,36.45
2023-05-25T02:36:02.255Z,36.42
2023-05-25T02:37:02.250Z,36.46
2023-05-25T02:38:02.209Z,36.46
2023-05-25T02:39:02.209Z,36.41
2023-05-25T02:40:02.150Z,36.47
2023-05-25T02:41:02.149Z,36.42
2023-05-25T02:42:02.108Z,36.41
2023-05-25T02:43:02.082Z,36.45
2023-05-25T02:44:02.120Z,36.43
2023-05-25T02:45:02.061Z,36.41
2023-05-25T02:46:02.066Z,36.43
2023-05-25T02:47:02.156Z,36.42
2023-05-25T02:48:02.058Z,36.39
2023-05-25T02:49:02.054Z,36.37
2023-05-25T02:50:02.030Z,36.33
2023-05-25T02:51:02.034Z,36.20
2023-05-25T02:52:02.041Z,36.18
2023-05-25T02:53:02.047Z,36.00
2023-05-25T02:54:02.060Z,35.75
2023-05-25T02:55:02.057Z,35.54
2023-05-25T02:56:02.083Z,35.39
2023-05-25T02:57:02.070Z,35.35
2023-05-25T02:58:02.095Z,35.25
2023-05-25T02:59:02.090Z,35.14
2023-05-25T03:00:02.095Z,35.08
2023-05-25T03:01:02.120Z,34.92
2023-05-25T03:02:02.129Z,34.88
2023-05-25T03:03:02.206Z,34.91
2023-05-25T03:04:02.283Z,34.90
2023-05-25T03:05:04.103Z,34.87
2023-05-25T03:06:02.060Z,34.74
2023-05-25T03:07:02.044Z,34.75
2023-05-25T03:08:02.069Z,34.67
2023-05-25T03:09:02.081Z,34.70
2023-05-25T03:10:02.114Z,34.61
2023-05-25T03:11:02.154Z,34.63
2023-05-25T03:12:02.201Z,34.63
2023-05-25T03:13:02.244Z,34.59
2023-05-25T03:14:02.278Z,34.50
2023-05-25T03:15:02.327Z,34.52
2023-05-25T03:16:02.336Z,34.60
2023-05-25T03:17:02.413Z,34.50
2023-05-25T03:18:02.429Z,34.52
2023-05-25T03:19:02.466Z,34.59
2023-05-25T03:20:02.565Z,34.59
2023-05-25T03:21:02.582Z,34.55
2023-05-25T03:22:02.628Z,34.58
2023-05-25T03:23:02.672Z,34.48
2023-05-25T03:24:02.714Z,34.57
2023-05-25T03:25:02.751Z,34.48
2023-05-25T03:26:02.799Z,34.56
2023-05-25T03:27:02.795Z,34.49
2023-05-25T03:28:02.774Z,34.48
2023-05-25T03:29:02.746Z,34.50
2023-05-25T03:30:02.729Z,34.45
2023-05-25T03:31:02.696Z,34.50
2023-05-25T03:32:02.752Z,34.46
2023-05-25T03:33:02.708Z,34.43
2023-05-25T03:34:02.681Z,34.46
2023-05-25T03:35:02.662Z,34.46
2023-05-25T03:36:02.680Z,34.50
2023-05-25T03:37:02.731Z,34.42
2023-05-25T03:38:02.765Z,34.38
2023-05-25T03:39:02.800Z,34.44
2023-05-25T03:40:02.789Z,34.44
2023-05-25T03:41:02.807Z,34.46
2023-05-25T03:42:02.853Z,34.48
2023-05-25T03:43:02.802Z,34.43
2023-05-25T03:44:02.804Z,34.44
2023-05-25T03:45:02.792Z,34.47
2023-05-25T03:46:02.776Z,34.47
2023-05-25T03:47:02.754Z,34.50
2023-05-25T03:48:02.735Z,34.46
2023-05-25T03:49:02.716Z,34.42
2023-05-25T03:50:02.718Z,34.38
2023-05-25T03:51:02.705Z,34.46
2023-05-25T03:52:02.672Z,34.50
2023-05-25T03:53:02.629Z,34.48
2023-05-25T03:54:02.618Z,34.48
2023-05-25T03:55:02.608Z,34.56
2023-05-25T03:56:02.630Z,34.56
2023-05-25T03:57:02.690Z,34.55
2023-05-25T03:58:02.811Z,34.46
2023-05-25T03:59:02.885Z,34.53
2023-05-25T04:00:02.939Z,34.49
2023-05-25T04:01:05.093Z,34.53
2023-05-25T04:02:03.030Z,34.55
2023-05-25T04:03:03.270Z,34.51
2023-05-25T04:04:03.087Z,34.51
2023-05-25T04:05:03.010Z,34.54
2023-05-25T04:06:03.009Z,34.52
2023-05-25T04:07:02.989Z,34.63
2023-05-25T04:08:02.958Z,34.64
2023-05-25T04:09:02.932Z,34.49
2023-05-25T04:10:02.910Z,34.57
2023-05-25T04:11:02.892Z,34.54
2023-05-25T04:12:02.887Z,34.61
2023-05-25T04:13:02.853Z,34.61
2023-05-25T04:14:02.848Z,34.58
2023-05-25T04:15:02.818Z,34.57
2023-05-25T04:16:02.832Z,34.61
2023-05-25T04:17:02.799Z,34.68
2023-05-25T04:18:02.967Z,34.65
2023-05-25T04:19:02.899Z,34.65
2023-05-25T04:20:02.872Z,34.61
2023-05-25T04:21:02.853Z,34.63
2023-05-25T04:22:02.863Z,34.66
2023-05-25T04:23:02.865Z,34.75
2023-05-25T04:24:02.869Z,34.63
2023-05-25T04:25:02.838Z,34.70
2023-05-25T04:26:02.842Z,34.67
2023-05-25T04:27:02.828Z,34.67
2023-05-25T04:28:02.838Z,34.69
2023-05-25T04:29:02.924Z,34.68
2023-05-25T04:30:02.916Z,34.71
2023-05-25T04:31:02.919Z,34.70
2023-05-25T04:32:03.061Z,34.72
2023-05-25T04:33:03.148Z,34.67
2023-05-25T04:34:02.938Z,34.70
2023-05-25T04:35:02.895Z,34.77
2023-05-25T04:36:02.900Z,34.77
2023-05-25T04:37:02.903Z,34.83
2023-05-25T04:38:03.164Z,34.77
2023-05-25T04:39:02.975Z,34.76
2023-05-25T04:40:02.897Z,34.81
2023-05-25T04:41:02.893Z,34.83
2023-05-25T04:42:02.887Z,34.88
2023-05-25T04:43:02.934Z,34.81
2023-05-25T04:44:09.056Z,34.85
2023-05-25T04:45:03.891Z,34.81
2023-05-25T04:46:02.909Z,34.73
2023-05-25T04:47:02.856Z,34.78
2023-05-25T04:48:02.908Z,34.75
2023-05-25T04:49:02.827Z,34.77
2023-05-25T04:50:02.805Z,34.73
2023-05-25T04:51:02.792Z,34.75
2023-05-25T04:52:02.776Z,34.80
2023-05-25T04:53:02.759Z,34.85
2023-05-25T04:54:02.773Z,34.85
2023-05-25T04:55:02.797Z,34.79
2023-05-25T04:56:02.689Z,34.84
2023-05-25T04:57:02.659Z,34.88
2023-05-25T04:58:02.651Z,34.84
2023-05-25T04:59:02.635Z,34.81
2023-05-25T05:00:02.603Z,34.84
2023-05-25T05:01:02.627Z,34.84
2023-05-25T05:02:02.607Z,34.90
2023-05-25T05:03:02.617Z,34.89
2023-05-25T05:04:02.593Z,34.90
2023-05-25T05:05:02.521Z,34.89
2023-05-25T05:06:02.521Z,34.93
2023-05-25T05:07:02.486Z,34.88
2023-05-25T05:08:02.483Z,34.96
2023-05-25T05:09:02.511Z,34.93
2023-05-25T05:10:02.461Z,34.92
2023-05-25T05:11:02.431Z,34.97
2023-05-25T05:12:02.432Z,34.97
2023-05-25T05:13:02.392Z,35.04
2023-05-25T05:14:02.390Z,34.97
2023-05-25T05:15:02.379Z,34.97
2023-05-25T05:16:02.363Z,35.00
2023-05-25T05:17:02.399Z,34.97
2023-05-25T05:18:02.374Z,35.00
2023-05-25T05:19:02.376Z,35.00
2023-05-25T05:20:02.389Z,35.02
2023-05-25T05:21:02.283Z,35.01
2023-05-25T05:22:02.274Z,35.02
2023-05-25T05:23:02.252Z,35.02
2023-05-25T05:24:02.253Z,35.03
2023-05-25T05:25:02.212Z,35.02
2023-05-25T05:26:02.208Z,35.00
2023-05-25T05:27:04.559Z,35.05
2023-05-25T05:28:02.368Z,34.98
2023-05-25T05:29:02.383Z,35.01
2023-05-25T05:30:02.734Z,35.01
2023-05-25T05:31:02.391Z,35.01
2023-05-25T05:32:02.382Z,34.98
2023-05-25T05:33:02.548Z,34.97
2023-05-25T05:34:02.434Z,34.98
2023-05-25T05:35:02.412Z,35.58
2023-05-25T05:36:02.428Z,36.23
2023-05-25T05:37:02.437Z,36.14
2023-05-25T05:38:02.475Z,36.87
2023-05-25T05:39:02.486Z,36.77
2023-05-25T05:40:02.516Z,37.02
2023-05-25T05:41:02.512Z,37.15
2023-05-25T05:42:02.558Z,37.48
2023-05-25T05:43:02.598Z,37.24
2023-05-25T05:44:02.653Z,37.26
2023-05-25T05:45:02.690Z,37.34
2023-05-25T05:46:02.757Z,37.01
2023-05-25T05:47:02.794Z,37.19
2023-05-25T05:48:02.824Z,37.44
2023-05-25T05:49:02.864Z,37.44
2023-05-25T05:50:02.907Z,37.46
2023-05-25T05:51:02.962Z,37.73
2023-05-25T05:52:02.946Z,37.46
2023-05-25T05:53:02.996Z,37.57
2023-05-25T05:54:03.036Z,37.52
2023-05-25T05:55:03.142Z,37.37
2023-05-25T05:56:03.124Z,37.86
2023-05-25T05:57:03.067Z,37.78
2023-05-25T05:58:03.067Z,38.14
2023-05-25T05:59:03.070Z,38.42
2023-05-25T06:00:03.096Z,38.17
2023-05-25T06:01:03.206Z,38.17
2023-05-25T06:02:03.137Z,38.37
2023-05-25T06:03:03.167Z,38.22
2023-05-25T06:04:03.212Z,38.03
2023-05-25T06:05:03.155Z,38.17
2023-05-25T06:06:03.306Z,38.07
2023-05-25T06:07:03.199Z,37.99
2023-05-25T06:08:04.594Z,37.90
2023-05-25T06:09:03.341Z,37.96
2023-05-25T06:10:03.345Z,37.82
2023-05-25T06:11:03.330Z,37.89
2023-05-25T06:12:03.327Z,37.95
2023-05-25T06:13:03.310Z,37.98
2023-05-25T06:14:03.312Z,37.92
2023-05-25T06:15:03.272Z,37.92
2023-05-25T06:16:03.362Z,37.90
2023-05-25T06:17:03.259Z,37.82
2023-05-25T06:18:03.231Z,37.79
2023-05-25T06:19:03.217Z,37.92
2023-05-25T06:20:03.192Z,37.75
2023-05-25T06:21:03.140Z,37.57
2023-05-25T06:22:03.119Z,37.63
2023-05-25T06:23:03.126Z,37.52
2023-05-25T06:24:03.107Z,37.57
2023-05-25T06:25:03.121Z,37.68
2023-05-25T06:26:03.107Z,37.91
2023-05-25T06:27:03.131Z,37.98
2023-05-25T06:28:03.117Z,38.13
2023-05-25T06:29:03.119Z,38.25
2023-05-25T06:30:03.108Z,38.29
2023-05-25T06:31:03.156Z,38.36
2023-05-25T06:32:03.121Z,38.44
2023-05-25T06:33:03.081Z,38.43
2023-05-25T06:34:03.047Z,38.56
2023-05-25T06:35:02.991Z,38.55
2023-05-25T06:36:02.980Z,38.58
2023-05-25T06:37:02.968Z,38.69
2023-05-25T06:38:02.931Z,38.72
2023-05-25T06:39:02.955Z,38.78
2023-05-25T06:40:02.986Z,38.73
2023-05-25T06:41:03.009Z,39.14
2023-05-25T06:42:03.065Z,39.12
2023-05-25T06:43:03.102Z,38.87
2023-05-25T06:44:03.104Z,38.53
2023-05-25T06:45:03.087Z,38.41
2023-05-25T06:46:03.185Z,38.24
2023-05-25T06:47:03.102Z,38.39
2023-05-25T06:48:03.227Z,38.31
2023-05-25T06:49:03.146Z,38.24
2023-05-25T06:50:03.137Z,37.98
2023-05-25T06:51:03.156Z,38.02
2023-05-25T06:52:03.147Z,37.87
2023-05-25T06:53:03.141Z,37.62
2023-05-25T06:54:03.160Z,37.55
2023-05-25T06:55:03.151Z,37.42
2023-05-25T06:56:03.155Z,36.91
2023-05-25T06:57:03.099Z,37.11
2023-05-25T06:58:03.100Z,36.94
2023-05-25T06:59:03.042Z,37.03
2023-05-25T07:00:03.021Z,36.89
2023-05-25T07:01:03.032Z,36.84
2023-05-25T07:02:02.997Z,36.88
2023-05-25T07:03:03.036Z,36.86
2023-05-25T07:04:02.936Z,36.74
2023-05-25T07:05:02.976Z,36.76
2023-05-25T07:06:02.893Z,36.88
2023-05-25T07:07:02.944Z,36.92
2023-05-25T07:08:02.824Z,36.87
2023-05-25T07:09:02.804Z,36.81
2023-05-25T07:10:02.779Z,36.87
2023-05-25T07:11:02.731Z,36.77
2023-05-25T07:12:02.733Z,36.73
2023-05-25T07:13:02.685Z,36.84
2023-05-25T07:14:02.678Z,36.64
2023-05-25T07:15:02.637Z,36.60
2023-05-25T07:16:02.649Z,36.56
2023-05-25T07:17:02.591Z,36.67
2023-05-25T07:18:02.570Z,36.47
2023-05-25T07:19:02.552Z,36.51
2023-05-25T07:20:02.521Z,36.53
2023-05-25T07:21:02.491Z,36.34
2023-05-25T07:22:02.448Z,36.44
2023-05-25T07:23:02.516Z,36.31
2023-05-25T07:24:02.440Z,36.46
2023-05-25T07:25:02.424Z,36.42
2023-05-25T07:26:04.298Z,36.30
2023-05-25T07:27:02.376Z,36.39
2023-05-25T07:28:02.349Z,36.31
2023-05-25T07:29:02.319Z,36.33
2023-05-25T07:30:02.269Z,36.35
2023-05-25T07:31:02.260Z,36.31
2023-05-25T07:32:02.224Z,36.35
2023-05-25T07:33:02.308Z,36.25
2023-05-25T07:34:02.211Z,36.24
2023-05-25T07:35:02.282Z,36.27
2023-05-25T07:36:02.135Z,36.24
2023-05-25T07:37:02.126Z,36.13
2023-05-25T07:38:02.141Z,36.08
2023-05-25T07:39:02.063Z,36.28
2023-05-25T07:40:02.013Z,36.37
2023-05-25T07:41:01.992Z,36.58
2023-05-25T07:42:02.015Z,36.74
2023-05-25T07:43:02.065Z,36.58
2023-05-25T07:44:01.951Z,36.82
2023-05-25T07:45:01.887Z,36.64
2023-05-25T07:46:01.818Z,36.66
2023-05-25T07:47:01.939Z,36.69
2023-05-25T07:48:01.804Z,36.70
2023-05-25T07:49:01.777Z,36.42
2023-05-25T07:50:01.771Z,36.48
2023-05-25T07:51:01.703Z,36.33
2023-05-25T07:52:01.650Z,36.32
2023-05-25T07:53:01.618Z,36.25
2023-05-25T07:54:01.591Z,36.23
2023-05-25T07:55:01.588Z,36.26
2023-05-25T07:56:01.539Z,36.39
2023-05-25T07:57:01.544Z,36.43
2023-05-25T07:58:01.501Z,36.32
2023-05-25T07:59:01.713Z,36.21
2023-05-25T08:00:01.454Z,36.20
2023-05-25T08:01:01.390Z,36.27
2023-05-25T08:02:01.421Z,36.06
2023-05-25T08:03:01.617Z,36.09
2023-05-25T08:04:01.510Z,35.82
2023-05-25T08:05:01.397Z,35.82
2023-05-25T08:06:01.239Z,35.75
2023-05-25T08:07:01.230Z,36.09
2023-05-25T08:08:01.204Z,36.13
2023-05-25T08:09:01.163Z,35.98
2023-05-25T08:10:01.111Z,35.91
2023-05-25T08:11:01.105Z,35.87
2023-05-25T08:12:24.059Z,35.94
2023-05-25T08:13:02.079Z,35.91
2023-05-25T08:14:01.096Z,35.87
2023-05-25T08:15:00.992Z,36.02
2023-05-25T08:16:00.954Z,35.84
2023-05-25T08:17:00.959Z,35.71
2023-05-25T08:18:00.998Z,35.83
2023-05-25T08:19:00.926Z,35.85
2023-05-25T08:20:00.916Z,35.50
2023-05-25T08:21:00.816Z,35.73
2023-05-25T08:22:00.789Z,35.58
2023-05-25T08:23:00.782Z,35.62
2023-05-25T08:24:00.813Z,35.56
2023-05-25T08:25:00.799Z,35.58
2023-05-25T08:26:01.362Z,35.61
2023-05-25T08:27:00.743Z,35.71
2023-05-25T08:28:00.788Z,35.57
2023-05-25T08:29:00.687Z,35.46
2023-05-25T08:30:00.652Z,35.99
2023-05-25T08:31:00.687Z,36.41
2023-05-25T08:32:00.618Z,36.23
2023-05-25T08:33:00.588Z,36.06
2023-05-25T08:34:00.552Z,35.98
2023-05-25T08:35:00.513Z,36.06
2023-05-25T08:36:00.485Z,36.09
2023-05-25T08:37:00.439Z,36.05
2023-05-25T08:38:00.403Z,35.98
2023-05-25T08:39:00.400Z,36.14
2023-05-25T08:40:00.363Z,36.30
2023-05-25T08:41:00.327Z,36.22
2023-05-25T08:42:00.292Z,36.18
2023-05-25T08:43:00.265Z,36.22
2023-05-25T08:44:00.240Z,36.13
2023-05-25T08:45:00.226Z,36.33
2023-05-25T08:46:00.193Z,36.11
2023-05-25T08:47:00.162Z,36.28
2023-05-25T08:48:00.300Z,36.38
2023-05-25T08:49:00.240Z,36.52
2023-05-25T08:50:00.191Z,36.59
2023-05-25T08:51:00.199Z,36.81
2023-05-25T08:52:00.217Z,37.27
2023-05-25T08:53:00.258Z,37.22
2023-05-25T08:54:00.344Z,37.23
2023-05-25T08:55:00.347Z,37.17
2023-05-25T08:56:00.365Z,37.15
2023-05-25T08:57:00.398Z,36.81
2023-05-25T08:58:00.440Z,37.08
2023-05-25T08:59:00.473Z,36.80
2023-05-25T09:00:00.509Z,36.96
2023-05-25T09:01:00.558Z,36.65
2023-05-25T09:02:00.708Z,36.47
2023-05-25T09:03:00.606Z,36.13
2023-05-25T09:04:00.595Z,36.24
2023-05-25T09:05:00.574Z,35.73
2023-05-25T09:06:00.627Z,36.05
2023-05-25T09:07:09.509Z,35.97
2023-05-25T09:08:01.580Z,35.75
2023-05-25T09:09:00.589Z,35.87
2023-05-25T09:10:00.502Z,35.96
2023-05-25T09:11:00.476Z,35.84
2023-05-25T09:12:00.468Z,35.63
2023-05-25T09:14:00.405Z,35.51
2023-05-25T09:15:00.372Z,35.44
2023-05-25T09:16:00.349Z,35.94
2023-05-25T09:17:00.350Z,35.86
2023-05-25T09:18:00.384Z,35.78
2023-05-25T09:19:00.264Z,35.88
2023-05-25T09:20:00.273Z,35.95
2023-05-25T09:21:00.363Z,36.22
2023-05-25T09:22:13.362Z,35.98
2023-05-25T09:23:01.123Z,36.15
2023-05-25T09:24:00.144Z,35.88
2023-05-25T09:25:00.056Z,36.23
2023-05-25T09:26:00.046Z,35.85
2023-05-25T09:27:00.028Z,35.65
2023-05-25T09:28:02.908Z,35.40
2023-05-25T09:29:01.021Z,35.14
2023-05-25T09:30:00.100Z,35.06
2023-05-25T09:30:59.931Z,35.26
2023-05-25T09:31:59.967Z,35.30
2023-05-25T09:32:59.849Z,35.50
2023-05-25T09:33:59.891Z,35.39
2023-05-25T09:34:59.774Z,35.46
2023-05-25T09:35:59.791Z,35.20
2023-05-25T09:36:59.877Z,35.31
2023-05-25T09:38:00.118Z,35.25
2023-05-25T09:38:59.872Z,35.31
2023-05-25T09:39:59.597Z,35.01
2023-05-25T09:40:59.568Z,35.30
2023-05-25T09:41:59.521Z,35.17
2023-05-25T09:42:59.493Z,35.12
2023-05-25T09:44:59.439Z,35.56
2023-05-25T09:45:59.472Z,35.79
2023-05-25T09:46:59.420Z,35.75
2023-05-25T09:47:59.530Z,35.93
2023-05-25T09:48:59.456Z,35.96
2023-05-25T09:49:59.437Z,35.91
2023-05-25T09:50:59.461Z,36.07
2023-05-25T09:51:59.464Z,36.21
2023-05-25T09:52:59.462Z,36.08
2023-05-25T09:53:59.483Z,36.17
2023-05-25T09:54:59.491Z,35.93
2023-05-25T09:56:00.645Z,35.69
2023-05-25T09:56:59.500Z,35.53
2023-05-25T09:57:59.521Z,35.22
2023-05-25T09:58:59.506Z,34.98
2023-05-25T09:59:59.528Z,34.97
2023-05-25T10:00:59.614Z,34.83
2023-05-25T10:01:59.719Z,34.94
2023-05-25T10:02:59.575Z,34.80
2023-05-25T10:04:04.374Z,34.64
2023-05-25T10:05:00.655Z,34.69
2023-05-25T10:05:59.551Z,34.70
2023-05-25T10:06:59.508Z,34.79
2023-05-25T10:07:59.502Z,34.73
2023-05-25T10:08:59.457Z,34.98
2023-05-25T10:09:59.439Z,34.88
2023-05-25T10:10:59.382Z,34.85
2023-05-25T10:11:59.459Z,34.82
2023-05-25T10:12:59.365Z,34.76
2023-05-25T10:13:59.436Z,34.71
2023-05-25T10:14:59.479Z,34.62
2023-05-25T10:15:59.502Z,34.84
2023-05-25T10:16:59.533Z,34.98
2023-05-25T10:17:59.556Z,34.95
2023-05-25T10:18:59.595Z,34.96
2023-05-25T10:19:59.695Z,34.90
2023-05-25T10:20:59.892Z,34.81
2023-05-25T10:21:59.711Z,34.76
2023-05-25T10:22:59.779Z,34.70
2023-05-25T10:23:59.806Z,34.73
2023-05-25T10:24:59.892Z,34.85
2023-05-25T10:25:59.837Z,34.80
2023-05-25T10:27:03.168Z,34.79
2023-05-25T10:28:00.845Z,34.70
2023-05-25T10:28:59.876Z,34.74
2023-05-25T10:29:59.804Z,34.59
2023-05-25T10:30:59.881Z,34.53
2023-05-25T10:31:59.840Z,34.49
2023-05-25T10:32:59.814Z,34.53
2023-05-25T10:33:59.694Z,34.38
2023-05-25T10:34:59.643Z,34.45
2023-05-25T10:36:59.695Z,34.65
2023-05-25T10:37:59.722Z,34.74
2023-05-25T10:38:59.780Z,34.90
2023-05-25T10:39:59.807Z,34.73
2023-05-25T10:40:59.835Z,34.82
2023-05-25T10:41:59.855Z,34.83
2023-05-25T10:42:59.888Z,34.67
2023-05-25T10:43:59.935Z,34.55
2023-05-25T10:44:59.954Z,34.43
2023-05-25T10:45:59.989Z,34.17
2023-05-25T10:47:00.057Z,34.11
2023-05-25T10:48:00.160Z,34.20
2023-05-25T10:49:00.116Z,34.26
2023-05-25T10:50:00.095Z,34.42
2023-05-25T10:51:00.326Z,34.32
2023-05-25T10:52:00.240Z,34.25
2023-05-25T10:53:00.222Z,34.36
2023-05-25T10:54:00.285Z,34.33
2023-05-25T10:55:00.293Z,34.49
2023-05-25T10:56:00.335Z,34.17
2023-05-25T10:57:00.364Z,34.09
2023-05-25T10:58:00.373Z,33.87
2023-05-25T10:59:00.412Z,33.83
2023-05-25T11:00:00.586Z,33.77
2023-05-25T11:01:00.672Z,33.79
2023-05-25T11:02:00.643Z,34.08
2023-05-25T11:03:00.510Z,34.29
2023-05-25T11:04:00.442Z,34.22
2023-05-25T11:05:00.411Z,34.25
2023-05-25T11:06:00.406Z,34.17
2023-05-25T11:07:00.357Z,34.12
2023-05-25T11:08:00.417Z,34.17
2023-05-25T11:09:00.348Z,34.01
2023-05-25T11:10:00.290Z,34.43
2023-05-25T11:11:00.247Z,34.58
2023-05-25T11:12:00.232Z,34.07
2023-05-25T11:13:00.156Z,34.24
2023-05-25T11:14:00.155Z,34.20
2023-05-25T11:15:00.174Z,34.26
2023-05-25T11:16:00.112Z,34.38
2023-05-25T11:17:00.224Z,34.07
2023-05-25T11:18:00.390Z,34.49
2023-05-25T11:19:00.230Z,34.39
2023-05-25T11:20:00.320Z,34.82
2023-05-25T11:21:00.277Z,35.26
2023-05-25T11:22:01.570Z,35.48
2023-05-25T11:23:00.328Z,35.19
2023-05-25T11:24:00.310Z,35.42
2023-05-25T11:25:00.386Z,35.27
2023-05-25T11:26:00.345Z,35.29
2023-05-25T11:27:00.342Z,35.19
2023-05-25T11:28:00.351Z,35.13
2023-05-25T11:29:00.397Z,35.14
2023-05-25T11:30:00.539Z,35.13
2023-05-25T11:31:00.383Z,35.12
2023-05-25T11:32:00.379Z,35.04
2023-05-25T11:33:00.438Z,34.99
2023-05-25T11:34:00.397Z,35.04
2023-05-25T11:35:00.425Z,35.04
2023-05-25T11:36:00.433Z,34.97
2023-05-25T11:37:00.415Z,34.95
2023-05-25T11:38:00.423Z,34.92
2023-05-25T11:39:04.833Z,34.92
2023-05-25T11:40:01.405Z,34.89
2023-05-25T11:41:00.363Z,35.03
2023-05-25T11:42:00.336Z,34.98
2023-05-25T11:43:00.310Z,35.07
2023-05-25T11:44:00.282Z,35.12
2023-05-25T11:45:00.254Z,35.15
2023-05-25T11:46:00.252Z,35.16
2023-05-25T11:47:00.199Z,35.13
2023-05-25T11:48:00.336Z,35.13
2023-05-25T11:49:00.126Z,35.12
2023-05-25T11:50:00.200Z,34.99
2023-05-25T11:51:00.062Z,34.97
2023-05-25T11:52:00.051Z,34.97
2023-05-25T11:53:00.003Z,34.99
2023-05-25T11:53:59.971Z,35.02
2023-05-25T11:54:59.955Z,35.04
2023-05-25T11:56:07.450Z,34.97
2023-05-25T11:57:00.870Z,35.08
2023-05-25T11:57:59.834Z,35.39
2023-05-25T11:58:59.809Z,35.66
2023-05-25T11:59:59.779Z,36.41
2023-05-25T12:00:59.727Z,36.74
2023-05-25T12:01:59.762Z,37.20
2023-05-25T12:02:59.785Z,37.44
2023-05-25T12:03:59.756Z,37.39
2023-05-25T12:04:59.636Z,37.39
2023-05-25T12:05:59.554Z,37.21
2023-05-25T12:06:59.521Z,37.23
2023-05-25T12:07:59.485Z,37.22
2023-05-25T12:08:59.493Z,37.17
2023-05-25T12:09:59.417Z,37.22
2023-05-25T12:10:59.397Z,37.07
2023-05-25T12:11:59.385Z,37.05
2023-05-25T12:12:59.379Z,37.12
2023-05-25T12:13:59.390Z,36.98
2023-05-25T12:14:59.412Z,36.93
2023-05-25T12:15:59.401Z,36.83
2023-05-25T12:16:59.406Z,36.78
2023-05-25T12:17:59.392Z,36.75
2023-05-25T12:18:59.283Z,36.83
2023-05-25T12:19:59.253Z,36.83
2023-05-25T12:20:59.230Z,36.84
2023-05-25T12:21:59.165Z,36.78
2023-05-25T12:22:59.137Z,36.74
2023-05-25T12:23:59.103Z,36.75
2023-05-25T12:24:59.075Z,36.73
2023-05-25T12:25:59.019Z,36.69
2023-05-25T12:26:58.994Z,36.65
2023-05-25T12:27:58.964Z,36.57
2023-05-25T12:28:58.945Z,36.46
2023-05-25T12:29:58.930Z,36.49
2023-05-25T12:30:58.895Z,36.37
2023-05-25T12:31:58.814Z,36.41
2023-05-25T12:33:00.954Z,36.40
2023-05-25T12:33:58.765Z,36.33
2023-05-25T12:34:58.742Z,36.26
2023-05-25T12:35:58.684Z,36.20
2023-05-25T12:36:58.658Z,36.22
2023-05-25T12:37:58.623Z,36.11
2023-05-25T12:38:58.587Z,36.14
2023-05-25T12:40:00.123Z,36.08
2023-05-25T12:40:58.514Z,36.09
2023-05-25T12:41:58.509Z,36.02
2023-05-25T12:42:58.441Z,36.05
2023-05-25T12:43:58.393Z,36.02
2023-05-25T12:44:58.360Z,35.98
2023-05-25T12:45:58.362Z,36.02
2023-05-25T12:46:58.374Z,35.97
2023-05-25T12:47:59.317Z,35.93
2023-05-25T12:48:58.208Z,35.87
2023-05-25T12:49:58.214Z,35.93
2023-05-25T12:50:58.243Z,35.92
2023-05-25T12:51:58.124Z,35.81
2023-05-25T12:52:58.109Z,35.81
2023-05-25T12:53:58.058Z,35.88
2023-05-25T12:54:58.013Z,35.85